sensor_id;sensor_type;location;lat;lon;timestamp;P1;durP1;ratioP1;P2;durP2;ratioP2
75941;SDS011;64622;46.220;19.878;2023-07-28T00:01:02;10.35;;;3.50;;
75941;SDS011;64622;46.220;19.878;2023-07-28T00:03:29;8.80;;;3.12;;
75941;SDS011;64622;46.220;19.878;2023-07-28T00:05:55;8.52;;;3.45;;
75941;SDS011;64622;46.220;19.878;2023-07-28T00:08:22;9.80;;;3.70;;
75941;SDS011;64622;46.220;19.878;2023-07-28T00:10:48;8.65;;;3.17;;
75941;SDS011;64622;46.220;19.878;2023-07-28T00:13:15;11.73;;;3.30;;
75941;SDS011;64622;46.220;19.878;2023-07-28T00:15:42;9.70;;;3.22;;
75941;SDS011;64622;46.220;19.878;2023-07-28T00:18:08;9.75;;;3.00;;
75941;SDS011;64622;46.220;19.878;2023-07-28T00:20:35;11.23;;;3.40;;
75941;SDS011;64622;46.220;19.878;2023-07-28T00:23:01;8.07;;;3.20;;
75941;SDS011;64622;46.220;19.878;2023-07-28T00:25:28;9.60;;;3.25;;
75941;SDS011;64622;46.220;19.878;2023-07-28T00:27:55;8.43;;;3.15;;
75941;SDS011;64622;46.220;19.878;2023-07-28T00:30:21;8.73;;;3.45;;
75941;SDS011;64622;46.220;19.878;2023-07-28T00:32:49;9.00;;;3.40;;
75941;SDS011;64622;46.220;19.878;2023-07-28T00:35:16;9.45;;;3.30;;
75941;SDS011;64622;46.220;19.878;2023-07-28T00:37:42;10.15;;;3.37;;
75941;SDS011;64622;46.220;19.878;2023-07-28T00:40:09;9.00;;;3.30;;
75941;SDS011;64622;46.220;19.878;2023-07-28T00:42:37;8.20;;;3.17;;
75941;SDS011;64622;46.220;19.878;2023-07-28T00:45:04;8.77;;;3.17;;
75941;SDS011;64622;46.220;19.878;2023-07-28T00:47:31;7.93;;;2.95;;
75941;SDS011;64622;46.220;19.878;2023-07-28T00:49:57;9.25;;;3.00;;
75941;SDS011;64622;46.220;19.878;2023-07-28T00:52:24;7.82;;;3.00;;
75941;SDS011;64622;46.220;19.878;2023-07-28T00:54:52;9.13;;;2.97;;
75941;SDS011;64622;46.220;19.878;2023-07-28T00:57:18;7.07;;;2.60;;
75941;SDS011;64622;46.220;19.878;2023-07-28T00:59:45;12.32;;;3.00;;
75941;SDS011;64622;46.220;19.878;2023-07-28T01:02:12;7.18;;;2.70;;
75941;SDS011;64622;46.220;19.878;2023-07-28T01:04:39;8.90;;;3.05;;
75941;SDS011;64622;46.220;19.878;2023-07-28T01:07:10;8.82;;;2.90;;
75941;SDS011;64622;46.220;19.878;2023-07-28T01:09:47;9.17;;;2.80;;
75941;SDS011;64622;46.220;19.878;2023-07-28T01:12:19;8.20;;;2.97;;
75941;SDS011;64622;46.220;19.878;2023-07-28T01:14:45;8.77;;;2.92;;
75941;SDS011;64622;46.220;19.878;2023-07-28T01:17:12;9.48;;;3.05;;
75941;SDS011;64622;46.220;19.878;2023-07-28T01:19:38;7.87;;;3.00;;
75941;SDS011;64622;46.220;19.878;2023-07-28T01:25:06;7.87;;;3.10;;
75941;SDS011;64622;46.220;19.878;2023-07-28T01:27:44;8.30;;;3.05;;
75941;SDS011;64622;46.220;19.878;2023-07-28T01:30:11;11.48;;;3.03;;
75941;SDS011;64622;46.220;19.878;2023-07-28T01:32:38;10.00;;;3.10;;
75941;SDS011;64622;46.220;19.878;2023-07-28T01:35:05;9.90;;;3.23;;
75941;SDS011;64622;46.220;19.878;2023-07-28T01:37:32;9.02;;;3.53;;
75941;SDS011;64622;46.220;19.878;2023-07-28T01:39:59;9.10;;;3.45;;
75941;SDS011;64622;46.220;19.878;2023-07-28T01:42:26;10.15;;;3.37;;
75941;SDS011;64622;46.220;19.878;2023-07-28T01:44:53;10.13;;;3.17;;
75941;SDS011;64622;46.220;19.878;2023-07-28T01:47:19;8.30;;;3.10;;
75941;SDS011;64622;46.220;19.878;2023-07-28T01:49:46;7.50;;;3.08;;
75941;SDS011;64622;46.220;19.878;2023-07-28T01:52:12;8.43;;;3.00;;
75941;SDS011;64622;46.220;19.878;2023-07-28T01:54:39;8.07;;;3.10;;
75941;SDS011;64622;46.220;19.878;2023-07-28T01:57:06;8.60;;;2.87;;
75941;SDS011;64622;46.220;19.878;2023-07-28T01:59:32;10.17;;;3.23;;
75941;SDS011;64622;46.220;19.878;2023-07-28T02:01:59;7.50;;;3.10;;
75941;SDS011;64622;46.220;19.878;2023-07-28T02:04:26;9.38;;;3.25;;
75941;SDS011;64622;46.220;19.878;2023-07-28T02:06:53;8.77;;;3.03;;
75941;SDS011;64622;46.220;19.878;2023-07-28T02:09:20;8.60;;;3.12;;
75941;SDS011;64622;46.220;19.878;2023-07-28T02:11:46;7.23;;;2.80;;
75941;SDS011;64622;46.220;19.878;2023-07-28T02:14:13;6.90;;;2.70;;
75941;SDS011;64622;46.220;19.878;2023-07-28T02:16:40;8.70;;;3.08;;
75941;SDS011;64622;46.220;19.878;2023-07-28T02:19:06;9.25;;;3.00;;
75941;SDS011;64622;46.220;19.878;2023-07-28T02:21:34;9.07;;;3.20;;
75941;SDS011;64622;46.220;19.878;2023-07-28T02:24:00;7.60;;;3.03;;
75941;SDS011;64622;46.220;19.878;2023-07-28T02:26:27;9.15;;;3.12;;
75941;SDS011;64622;46.220;19.878;2023-07-28T02:28:53;8.98;;;3.20;;
75941;SDS011;64622;46.220;19.878;2023-07-28T02:31:20;7.78;;;3.15;;
75941;SDS011;64622;46.220;19.878;2023-07-28T02:33:47;9.73;;;3.17;;
75941;SDS011;64622;46.220;19.878;2023-07-28T02:36:14;7.83;;;3.17;;
75941;SDS011;64622;46.220;19.878;2023-07-28T02:38:40;8.48;;;3.30;;
75941;SDS011;64622;46.220;19.878;2023-07-28T02:41:07;10.00;;;3.00;;
75941;SDS011;64622;46.220;19.878;2023-07-28T02:43:33;10.60;;;3.50;;
75941;SDS011;64622;46.220;19.878;2023-07-28T02:46:00;8.20;;;3.37;;
75941;SDS011;64622;46.220;19.878;2023-07-28T02:48:27;8.13;;;3.30;;
75941;SDS011;64622;46.220;19.878;2023-07-28T02:50:53;11.05;;;3.83;;
75941;SDS011;64622;46.220;19.878;2023-07-28T02:53:20;12.55;;;3.40;;
75941;SDS011;64622;46.220;19.878;2023-07-28T02:55:47;11.30;;;3.70;;
75941;SDS011;64622;46.220;19.878;2023-07-28T02:58:14;10.38;;;3.37;;
75941;SDS011;64622;46.220;19.878;2023-07-28T03:00:42;9.67;;;3.27;;
75941;SDS011;64622;46.220;19.878;2023-07-28T03:03:10;11.68;;;3.70;;
75941;SDS011;64622;46.220;19.878;2023-07-28T03:05:37;10.43;;;3.53;;
75941;SDS011;64622;46.220;19.878;2023-07-28T03:08:07;10.23;;;3.40;;
75941;SDS011;64622;46.220;19.878;2023-07-28T03:10:33;11.30;;;3.67;;
75941;SDS011;64622;46.220;19.878;2023-07-28T03:13:00;10.23;;;3.40;;
75941;SDS011;64622;46.220;19.878;2023-07-28T03:15:26;12.07;;;4.00;;
75941;SDS011;64622;46.220;19.878;2023-07-28T03:17:53;12.35;;;4.30;;
75941;SDS011;64622;46.220;19.878;2023-07-28T03:20:20;11.40;;;4.20;;
75941;SDS011;64622;46.220;19.878;2023-07-28T03:22:47;14.75;;;4.75;;
75941;SDS011;64622;46.220;19.878;2023-07-28T03:25:14;10.00;;;4.10;;
75941;SDS011;64622;46.220;19.878;2023-07-28T03:27:40;13.20;;;7.35;;
75941;SDS011;64622;46.220;19.878;2023-07-28T03:30:07;11.75;;;4.45;;
75941;SDS011;64622;46.220;19.878;2023-07-28T03:32:36;18.40;;;4.55;;
75941;SDS011;64622;46.220;19.878;2023-07-28T03:35:03;14.82;;;4.65;;
75941;SDS011;64622;46.220;19.878;2023-07-28T03:37:32;12.60;;;5.07;;
75941;SDS011;64622;46.220;19.878;2023-07-28T03:39:59;10.88;;;4.75;;
75941;SDS011;64622;46.220;19.878;2023-07-28T03:42:27;12.68;;;4.72;;
75941;SDS011;64622;46.220;19.878;2023-07-28T03:44:54;13.25;;;4.93;;
75941;SDS011;64622;46.220;19.878;2023-07-28T03:47:21;13.15;;;5.07;;
75941;SDS011;64622;46.220;19.878;2023-07-28T03:49:47;14.97;;;4.97;;
75941;SDS011;64622;46.220;19.878;2023-07-28T03:52:14;12.57;;;5.10;;
75941;SDS011;64622;46.220;19.878;2023-07-28T03:54:40;14.07;;;5.18;;
75941;SDS011;64622;46.220;19.878;2023-07-28T03:57:08;18.65;;;5.95;;
75941;SDS011;64622;46.220;19.878;2023-07-28T03:59:35;13.45;;;5.12;;
75941;SDS011;64622;46.220;19.878;2023-07-28T04:02:02;14.30;;;5.20;;
75941;SDS011;64622;46.220;19.878;2023-07-28T04:04:29;11.95;;;5.18;;
75941;SDS011;64622;46.220;19.878;2023-07-28T04:06:56;15.27;;;5.32;;
75941;SDS011;64622;46.220;19.878;2023-07-28T04:09:23;12.00;;;4.90;;
75941;SDS011;64622;46.220;19.878;2023-07-28T04:11:50;13.95;;;5.60;;
75941;SDS011;64622;46.220;19.878;2023-07-28T04:14:16;10.57;;;4.87;;
75941;SDS011;64622;46.220;19.878;2023-07-28T04:16:43;15.98;;;4.93;;
75941;SDS011;64622;46.220;19.878;2023-07-28T04:19:11;11.18;;;4.97;;
75941;SDS011;64622;46.220;19.878;2023-07-28T04:21:37;12.32;;;5.05;;
75941;SDS011;64622;46.220;19.878;2023-07-28T04:24:07;11.05;;;5.15;;
75941;SDS011;64622;46.220;19.878;2023-07-28T04:26:35;10.53;;;4.60;;
75941;SDS011;64622;46.220;19.878;2023-07-28T04:29:02;13.57;;;4.47;;
75941;SDS011;64622;46.220;19.878;2023-07-28T04:31:29;10.48;;;4.78;;
75941;SDS011;64622;46.220;19.878;2023-07-28T04:33:56;9.35;;;4.30;;
75941;SDS011;64622;46.220;19.878;2023-07-28T04:36:23;11.68;;;4.47;;
75941;SDS011;64622;46.220;19.878;2023-07-28T04:38:50;9.60;;;4.23;;
75941;SDS011;64622;46.220;19.878;2023-07-28T04:41:16;11.35;;;4.20;;
75941;SDS011;64622;46.220;19.878;2023-07-28T04:43:44;12.05;;;4.12;;
75941;SDS011;64622;46.220;19.878;2023-07-28T04:46:11;9.27;;;3.90;;
75941;SDS011;64622;46.220;19.878;2023-07-28T04:48:38;8.25;;;3.70;;
75941;SDS011;64622;46.220;19.878;2023-07-28T04:51:05;8.57;;;3.47;;
75941;SDS011;64622;46.220;19.878;2023-07-28T04:53:32;9.63;;;3.65;;
75941;SDS011;64622;46.220;19.878;2023-07-28T04:55:59;10.02;;;3.90;;
75941;SDS011;64622;46.220;19.878;2023-07-28T04:58:26;9.43;;;4.15;;
75941;SDS011;64622;46.220;19.878;2023-07-28T05:00:53;8.95;;;3.80;;
75941;SDS011;64622;46.220;19.878;2023-07-28T05:03:20;9.90;;;3.60;;
75941;SDS011;64622;46.220;19.878;2023-07-28T05:05:47;10.90;;;4.18;;
75941;SDS011;64622;46.220;19.878;2023-07-28T05:08:13;11.60;;;3.72;;
75941;SDS011;64622;46.220;19.878;2023-07-28T05:10:40;12.05;;;3.80;;
75941;SDS011;64622;46.220;19.878;2023-07-28T05:13:09;10.23;;;3.60;;
75941;SDS011;64622;46.220;19.878;2023-07-28T05:15:36;9.13;;;3.53;;
75941;SDS011;64622;46.220;19.878;2023-07-28T05:18:04;11.70;;;4.00;;
75941;SDS011;64622;46.220;19.878;2023-07-28T05:20:30;8.93;;;3.60;;
75941;SDS011;64622;46.220;19.878;2023-07-28T05:22:57;9.98;;;3.60;;
75941;SDS011;64622;46.220;19.878;2023-07-28T05:25:24;10.25;;;3.47;;
75941;SDS011;64622;46.220;19.878;2023-07-28T05:27:51;10.83;;;3.67;;
75941;SDS011;64622;46.220;19.878;2023-07-28T05:30:17;10.48;;;3.33;;
75941;SDS011;64622;46.220;19.878;2023-07-28T05:32:44;10.45;;;3.50;;
75941;SDS011;64622;46.220;19.878;2023-07-28T05:35:13;8.98;;;3.08;;
75941;SDS011;64622;46.220;19.878;2023-07-28T05:37:40;9.93;;;2.95;;
75941;SDS011;64622;46.220;19.878;2023-07-28T05:40:07;8.13;;;2.60;;
75941;SDS011;64622;46.220;19.878;2023-07-28T05:42:35;7.18;;;2.60;;
75941;SDS011;64622;46.220;19.878;2023-07-28T05:45:02;7.82;;;2.65;;
75941;SDS011;64622;46.220;19.878;2023-07-28T05:47:29;10.60;;;2.75;;
75941;SDS011;64622;46.220;19.878;2023-07-28T05:49:56;7.72;;;2.50;;
75941;SDS011;64622;46.220;19.878;2023-07-28T05:52:22;7.17;;;2.30;;
75941;SDS011;64622;46.220;19.878;2023-07-28T05:54:49;6.82;;;2.35;;
75941;SDS011;64622;46.220;19.878;2023-07-28T05:57:15;7.68;;;2.20;;
75941;SDS011;64622;46.220;19.878;2023-07-28T05:59:42;7.55;;;2.30;;
75941;SDS011;64622;46.220;19.878;2023-07-28T06:02:09;7.55;;;1.92;;
75941;SDS011;64622;46.220;19.878;2023-07-28T06:04:36;7.57;;;2.10;;
75941;SDS011;64622;46.220;19.878;2023-07-28T06:07:04;9.07;;;2.20;;
75941;SDS011;64622;46.220;19.878;2023-07-28T06:09:31;9.13;;;2.40;;
75941;SDS011;64622;46.220;19.878;2023-07-28T06:11:58;8.02;;;2.47;;
75941;SDS011;64622;46.220;19.878;2023-07-28T06:14:25;9.02;;;2.40;;
75941;SDS011;64622;46.220;19.878;2023-07-28T06:16:52;8.17;;;2.63;;
75941;SDS011;64622;46.220;19.878;2023-07-28T06:19:19;8.15;;;2.37;;
75941;SDS011;64622;46.220;19.878;2023-07-28T06:21:50;7.60;;;2.20;;
75941;SDS011;64622;46.220;19.878;2023-07-28T06:24:17;9.65;;;2.20;;
75941;SDS011;64622;46.220;19.878;2023-07-28T06:26:44;7.72;;;2.00;;
75941;SDS011;64622;46.220;19.878;2023-07-28T06:29:11;7.67;;;2.23;;
75941;SDS011;64622;46.220;19.878;2023-07-28T06:31:38;7.97;;;1.90;;
75941;SDS011;64622;46.220;19.878;2023-07-28T06:34:04;8.30;;;2.20;;
75941;SDS011;64622;46.220;19.878;2023-07-28T06:36:31;7.90;;;2.00;;
75941;SDS011;64622;46.220;19.878;2023-07-28T06:38:57;7.35;;;1.85;;
75941;SDS011;64622;46.220;19.878;2023-07-28T06:41:25;5.83;;;1.50;;
75941;SDS011;64622;46.220;19.878;2023-07-28T06:43:53;5.70;;;1.50;;
75941;SDS011;64622;46.220;19.878;2023-07-28T06:46:20;11.75;;;1.92;;
75941;SDS011;64622;46.220;19.878;2023-07-28T06:48:46;7.75;;;1.90;;
75941;SDS011;64622;46.220;19.878;2023-07-28T06:51:15;7.45;;;1.92;;
75941;SDS011;64622;46.220;19.878;2023-07-28T06:53:42;6.43;;;1.50;;
75941;SDS011;64622;46.220;19.878;2023-07-28T06:56:09;5.10;;;1.40;;
75941;SDS011;64622;46.220;19.878;2023-07-28T06:58:35;5.62;;;1.50;;
75941;SDS011;64622;46.220;19.878;2023-07-28T07:01:02;6.10;;;1.50;;
75941;SDS011;64622;46.220;19.878;2023-07-28T07:03:29;6.82;;;1.35;;
75941;SDS011;64622;46.220;19.878;2023-07-28T07:05:55;6.63;;;1.40;;
75941;SDS011;64622;46.220;19.878;2023-07-28T07:08:22;23.75;;;1.80;;
75941;SDS011;64622;46.220;19.878;2023-07-28T07:10:50;6.93;;;1.40;;
75941;SDS011;64622;46.220;19.878;2023-07-28T07:13:16;6.35;;;1.30;;
75941;SDS011;64622;46.220;19.878;2023-07-28T07:15:44;6.70;;;1.35;;
75941;SDS011;64622;46.220;19.878;2023-07-28T07:18:11;5.67;;;1.30;;
75941;SDS011;64622;46.220;19.878;2023-07-28T07:20:38;6.62;;;1.20;;
75941;SDS011;64622;46.220;19.878;2023-07-28T07:23:05;5.37;;;1.17;;
75941;SDS011;64622;46.220;19.878;2023-07-28T07:25:32;5.75;;;1.40;;
75941;SDS011;64622;46.220;19.878;2023-07-28T07:27:58;6.12;;;1.27;;
75941;SDS011;64622;46.220;19.878;2023-07-28T07:30:25;6.70;;;1.40;;
75941;SDS011;64622;46.220;19.878;2023-07-28T07:32:52;9.18;;;1.62;;
75941;SDS011;64622;46.220;19.878;2023-07-28T07:35:18;6.87;;;1.30;;
75941;SDS011;64622;46.220;19.878;2023-07-28T07:37:45;7.03;;;1.30;;
75941;SDS011;64622;46.220;19.878;2023-07-28T07:40:12;7.47;;;1.40;;
75941;SDS011;64622;46.220;19.878;2023-07-28T07:42:41;5.17;;;1.20;;
75941;SDS011;64622;46.220;19.878;2023-07-28T07:45:15;7.07;;;1.15;;
75941;SDS011;64622;46.220;19.878;2023-07-28T07:47:42;5.50;;;1.20;;
75941;SDS011;64622;46.220;19.878;2023-07-28T07:50:09;4.47;;;1.15;;
75941;SDS011;64622;46.220;19.878;2023-07-28T07:52:37;5.15;;;1.20;;
75941;SDS011;64622;46.220;19.878;2023-07-28T07:55:05;5.30;;;1.10;;
75941;SDS011;64622;46.220;19.878;2023-07-28T07:57:31;5.35;;;1.10;;
75941;SDS011;64622;46.220;19.878;2023-07-28T07:59:58;5.30;;;1.00;;
75941;SDS011;64622;46.220;19.878;2023-07-28T08:02:25;6.45;;;1.17;;
75941;SDS011;64622;46.220;19.878;2023-07-28T08:04:52;6.90;;;1.27;;
75941;SDS011;64622;46.220;19.878;2023-07-28T08:07:21;4.97;;;1.20;;
75941;SDS011;64622;46.220;19.878;2023-07-28T08:09:49;5.95;;;1.23;;
75941;SDS011;64622;46.220;19.878;2023-07-28T08:12:16;6.97;;;1.40;;
75941;SDS011;64622;46.220;19.878;2023-07-28T08:14:43;7.28;;;1.27;;
75941;SDS011;64622;46.220;19.878;2023-07-28T08:17:11;5.27;;;1.30;;
75941;SDS011;64622;46.220;19.878;2023-07-28T08:19:38;4.85;;;1.05;;
75941;SDS011;64622;46.220;19.878;2023-07-28T08:22:05;4.97;;;1.20;;
75941;SDS011;64622;46.220;19.878;2023-07-28T08:24:32;5.28;;;1.00;;
75941;SDS011;64622;46.220;19.878;2023-07-28T08:26:59;6.70;;;1.30;;
75941;SDS011;64622;46.220;19.878;2023-07-28T08:29:26;6.83;;;0.90;;
75941;SDS011;64622;46.220;19.878;2023-07-28T08:31:52;6.40;;;1.10;;
75941;SDS011;64622;46.220;19.878;2023-07-28T08:34:19;8.07;;;1.10;;
75941;SDS011;64622;46.220;19.878;2023-07-28T08:36:45;5.25;;;1.20;;
75941;SDS011;64622;46.220;19.878;2023-07-28T08:39:12;4.47;;;1.00;;
75941;SDS011;64622;46.220;19.878;2023-07-28T08:41:39;5.77;;;1.10;;
75941;SDS011;64622;46.220;19.878;2023-07-28T08:44:06;6.47;;;1.20;;
75941;SDS011;64622;46.220;19.878;2023-07-28T08:46:33;6.93;;;1.30;;
75941;SDS011;64622;46.220;19.878;2023-07-28T08:49:02;6.30;;;1.08;;
75941;SDS011;64622;46.220;19.878;2023-07-28T08:51:28;5.45;;;1.10;;
75941;SDS011;64622;46.220;19.878;2023-07-28T08:53:55;7.53;;;1.47;;
75941;SDS011;64622;46.220;19.878;2023-07-28T08:56:22;6.22;;;1.20;;
75941;SDS011;64622;46.220;19.878;2023-07-28T08:58:49;8.07;;;1.20;;
75941;SDS011;64622;46.220;19.878;2023-07-28T09:01:23;6.18;;;0.95;;
75941;SDS011;64622;46.220;19.878;2023-07-28T09:03:50;7.00;;;1.15;;
75941;SDS011;64622;46.220;19.878;2023-07-28T09:06:16;7.07;;;1.10;;
75941;SDS011;64622;46.220;19.878;2023-07-28T09:08:45;5.30;;;1.10;;
75941;SDS011;64622;46.220;19.878;2023-07-28T09:11:11;7.47;;;1.20;;
75941;SDS011;64622;46.220;19.878;2023-07-28T09:13:41;6.50;;;1.25;;
75941;SDS011;64622;46.220;19.878;2023-07-28T09:16:17;6.30;;;1.40;;
75941;SDS011;64622;46.220;19.878;2023-07-28T09:18:45;6.87;;;1.30;;
75941;SDS011;64622;46.220;19.878;2023-07-28T09:21:17;9.77;;;1.30;;
75941;SDS011;64622;46.220;19.878;2023-07-28T09:23:47;9.43;;;1.52;;
75941;SDS011;64622;46.220;19.878;2023-07-28T09:26:15;6.18;;;1.20;;
75941;SDS011;64622;46.220;19.878;2023-07-28T09:28:41;6.20;;;1.30;;
75941;SDS011;64622;46.220;19.878;2023-07-28T09:31:08;5.50;;;1.30;;
75941;SDS011;64622;46.220;19.878;2023-07-28T09:33:37;6.30;;;1.17;;
75941;SDS011;64622;46.220;19.878;2023-07-28T09:36:09;5.30;;;1.23;;
75941;SDS011;64622;46.220;19.878;2023-07-28T09:38:38;7.00;;;1.37;;
75941;SDS011;64622;46.220;19.878;2023-07-28T09:41:10;5.72;;;1.48;;
75941;SDS011;64622;46.220;19.878;2023-07-28T09:43:38;8.13;;;1.40;;
75941;SDS011;64622;46.220;19.878;2023-07-28T09:46:09;6.28;;;1.10;;
75941;SDS011;64622;46.220;19.878;2023-07-28T09:48:40;6.53;;;1.35;;
75941;SDS011;64622;46.220;19.878;2023-07-28T09:51:12;5.35;;;1.10;;
75941;SDS011;64622;46.220;19.878;2023-07-28T09:53:50;5.37;;;1.20;;
75941;SDS011;64622;46.220;19.878;2023-07-28T09:56:22;9.53;;;1.40;;
75941;SDS011;64622;46.220;19.878;2023-07-28T09:58:54;8.13;;;1.33;;
75941;SDS011;64622;46.220;19.878;2023-07-28T10:01:23;6.62;;;1.20;;
75941;SDS011;64622;46.220;19.878;2023-07-28T10:03:50;8.20;;;1.50;;
75941;SDS011;64622;46.220;19.878;2023-07-28T10:06:17;7.78;;;1.30;;
75941;SDS011;64622;46.220;19.878;2023-07-28T10:08:45;7.67;;;1.13;;
75941;SDS011;64622;46.220;19.878;2023-07-28T10:11:14;5.30;;;1.17;;
75941;SDS011;64622;46.220;19.878;2023-07-28T10:13:44;6.03;;;1.50;;
75941;SDS011;64622;46.220;19.878;2023-07-28T10:16:12;5.12;;;1.10;;
75941;SDS011;64622;46.220;19.878;2023-07-28T10:18:53;5.32;;;1.00;;
75941;SDS011;64622;46.220;19.878;2023-07-28T10:21:21;5.10;;;1.00;;
75941;SDS011;64622;46.220;19.878;2023-07-28T10:23:56;7.47;;;1.02;;
75941;SDS011;64622;46.220;19.878;2023-07-28T10:26:46;5.03;;;1.33;;
75941;SDS011;64622;46.220;19.878;2023-07-28T10:29:12;5.90;;;1.10;;
75941;SDS011;64622;46.220;19.878;2023-07-28T10:31:51;7.07;;;1.27;;
75941;SDS011;64622;46.220;19.878;2023-07-28T10:34:18;5.53;;;1.10;;
75941;SDS011;64622;46.220;19.878;2023-07-28T10:36:46;7.22;;;1.10;;
75941;SDS011;64622;46.220;19.878;2023-07-28T10:41:40;4.65;;;1.10;;
75941;SDS011;64622;46.220;19.878;2023-07-28T10:44:27;6.35;;;1.50;;
75941;SDS011;64622;46.220;19.878;2023-07-28T10:46:53;6.83;;;1.10;;
75941;SDS011;64622;46.220;19.878;2023-07-28T10:49:20;6.55;;;1.12;;
75941;SDS011;64622;46.220;19.878;2023-07-28T10:51:47;4.80;;;1.10;;
75941;SDS011;64622;46.220;19.878;2023-07-28T10:54:14;6.10;;;1.10;;
75941;SDS011;64622;46.220;19.878;2023-07-28T10:56:45;5.18;;;1.25;;
75941;SDS011;64622;46.220;19.878;2023-07-28T10:59:13;5.83;;;1.33;;
75941;SDS011;64622;46.220;19.878;2023-07-28T11:01:41;6.87;;;1.30;;
75941;SDS011;64622;46.220;19.878;2023-07-28T11:04:13;6.18;;;1.00;;
75941;SDS011;64622;46.220;19.878;2023-07-28T11:06:44;5.60;;;1.15;;
75941;SDS011;64622;46.220;19.878;2023-07-28T11:09:14;6.35;;;1.08;;
75941;SDS011;64622;46.220;19.878;2023-07-28T11:11:42;5.50;;;1.10;;
75941;SDS011;64622;46.220;19.878;2023-07-28T11:14:09;5.62;;;1.23;;
75941;SDS011;64622;46.220;19.878;2023-07-28T11:16:37;5.00;;;1.00;;
75941;SDS011;64622;46.220;19.878;2023-07-28T11:19:11;6.43;;;1.10;;
75941;SDS011;64622;46.220;19.878;2023-07-28T11:21:43;5.35;;;1.08;;
75941;SDS011;64622;46.220;19.878;2023-07-28T11:24:10;5.73;;;1.20;;
75941;SDS011;64622;46.220;19.878;2023-07-28T11:26:37;6.55;;;1.00;;
75941;SDS011;64622;46.220;19.878;2023-07-28T11:29:05;5.80;;;1.05;;
75941;SDS011;64622;46.220;19.878;2023-07-28T11:31:33;4.95;;;1.12;;
75941;SDS011;64622;46.220;19.878;2023-07-28T11:34:00;5.10;;;1.05;;
75941;SDS011;64622;46.220;19.878;2023-07-28T11:36:29;5.50;;;1.20;;
75941;SDS011;64622;46.220;19.878;2023-07-28T11:38:57;7.32;;;1.17;;
75941;SDS011;64622;46.220;19.878;2023-07-28T11:41:25;7.10;;;1.20;;
75941;SDS011;64622;46.220;19.878;2023-07-28T11:43:53;7.00;;;1.50;;
75941;SDS011;64622;46.220;19.878;2023-07-28T11:49:07;4.60;;;1.00;;
75941;SDS011;64622;46.220;19.878;2023-07-28T11:51:43;5.72;;;1.25;;
75941;SDS011;64622;46.220;19.878;2023-07-28T11:54:14;5.07;;;0.82;;
75941;SDS011;64622;46.220;19.878;2023-07-28T11:56:42;7.72;;;1.45;;
75941;SDS011;64622;46.220;19.878;2023-07-28T11:59:10;4.80;;;1.20;;
75941;SDS011;64622;46.220;19.878;2023-07-28T12:04:25;6.80;;;1.60;;
75941;SDS011;64622;46.220;19.878;2023-07-28T12:07:00;7.28;;;1.10;;
75941;SDS011;64622;46.220;19.878;2023-07-28T12:09:33;42.28;;;3.35;;
75941;SDS011;64622;46.220;19.878;2023-07-28T12:12:22;5.32;;;1.10;;
75941;SDS011;64622;46.220;19.878;2023-07-28T12:14:50;7.73;;;1.20;;
75941;SDS011;64622;46.220;19.878;2023-07-28T12:17:20;8.63;;;1.35;;
75941;SDS011;64622;46.220;19.878;2023-07-28T12:22:23;6.32;;;1.23;;
75941;SDS011;64622;46.220;19.878;2023-07-28T12:24:50;5.65;;;1.20;;
75941;SDS011;64622;46.220;19.878;2023-07-28T12:27:16;6.90;;;1.30;;
75941;SDS011;64622;46.220;19.878;2023-07-28T12:29:44;5.05;;;0.90;;
75941;SDS011;64622;46.220;19.878;2023-07-28T12:32:10;5.80;;;1.10;;
75941;SDS011;64622;46.220;19.878;2023-07-28T12:34:37;4.97;;;1.20;;
75941;SDS011;64622;46.220;19.878;2023-07-28T12:37:03;7.12;;;1.02;;
75941;SDS011;64622;46.220;19.878;2023-07-28T12:39:30;6.80;;;1.30;;
75941;SDS011;64622;46.220;19.878;2023-07-28T12:41:57;4.93;;;1.10;;
75941;SDS011;64622;46.220;19.878;2023-07-28T12:44:23;5.82;;;1.17;;
75941;SDS011;64622;46.220;19.878;2023-07-28T12:46:50;5.82;;;0.90;;
75941;SDS011;64622;46.220;19.878;2023-07-28T12:49:16;6.10;;;1.45;;
75941;SDS011;64622;46.220;19.878;2023-07-28T12:51:46;8.00;;;1.20;;
75941;SDS011;64622;46.220;19.878;2023-07-28T12:54:12;7.05;;;1.25;;
75941;SDS011;64622;46.220;19.878;2023-07-28T12:56:39;5.80;;;1.27;;
75941;SDS011;64622;46.220;19.878;2023-07-28T12:59:06;6.28;;;1.30;;
75941;SDS011;64622;46.220;19.878;2023-07-28T13:01:32;6.62;;;1.25;;
75941;SDS011;64622;46.220;19.878;2023-07-28T13:03:59;6.30;;;1.20;;
75941;SDS011;64622;46.220;19.878;2023-07-28T13:06:26;7.60;;;1.30;;
75941;SDS011;64622;46.220;19.878;2023-07-28T13:08:52;7.65;;;1.33;;
75941;SDS011;64622;46.220;19.878;2023-07-28T13:11:19;7.18;;;1.52;;
75941;SDS011;64622;46.220;19.878;2023-07-28T13:13:45;6.57;;;1.33;;
75941;SDS011;64622;46.220;19.878;2023-07-28T13:16:12;6.43;;;1.17;;
75941;SDS011;64622;46.220;19.878;2023-07-28T13:18:39;6.05;;;1.30;;
75941;SDS011;64622;46.220;19.878;2023-07-28T13:21:06;6.82;;;1.10;;
75941;SDS011;64622;46.220;19.878;2023-07-28T13:23:33;6.50;;;1.30;;
75941;SDS011;64622;46.220;19.878;2023-07-28T13:25:59;5.03;;;1.17;;
75941;SDS011;64622;46.220;19.878;2023-07-28T13:28:26;8.30;;;1.07;;
75941;SDS011;64622;46.220;19.878;2023-07-28T13:30:53;6.75;;;1.30;;
75941;SDS011;64622;46.220;19.878;2023-07-28T13:33:19;7.47;;;1.33;;
75941;SDS011;64622;46.220;19.878;2023-07-28T13:35:46;6.70;;;1.62;;
75941;SDS011;64622;46.220;19.878;2023-07-28T13:38:13;7.78;;;1.50;;
75941;SDS011;64622;46.220;19.878;2023-07-28T13:40:39;6.10;;;1.30;;
75941;SDS011;64622;46.220;19.878;2023-07-28T13:43:06;8.50;;;2.00;;
75941;SDS011;64622;46.220;19.878;2023-07-28T13:45:33;6.60;;;2.20;;
75941;SDS011;64622;46.220;19.878;2023-07-28T13:47:59;8.23;;;2.45;;
75941;SDS011;64622;46.220;19.878;2023-07-28T13:50:26;7.97;;;2.33;;
75941;SDS011;64622;46.220;19.878;2023-07-28T13:52:53;7.70;;;2.10;;
75941;SDS011;64622;46.220;19.878;2023-07-28T13:55:19;7.22;;;2.20;;
75941;SDS011;64622;46.220;19.878;2023-07-28T13:57:46;6.87;;;2.37;;
75941;SDS011;64622;46.220;19.878;2023-07-28T14:00:13;9.38;;;2.55;;
75941;SDS011;64622;46.220;19.878;2023-07-28T14:02:40;8.85;;;2.22;;
75941;SDS011;64622;46.220;19.878;2023-07-28T14:05:07;7.00;;;2.30;;
75941;SDS011;64622;46.220;19.878;2023-07-28T14:07:33;8.02;;;2.40;;
75941;SDS011;64622;46.220;19.878;2023-07-28T14:10:01;8.63;;;2.87;;
75941;SDS011;64622;46.220;19.878;2023-07-28T14:12:28;10.50;;;2.70;;
75941;SDS011;64622;46.220;19.878;2023-07-28T14:14:54;7.10;;;1.77;;
75941;SDS011;64622;46.220;19.878;2023-07-28T14:17:21;11.00;;;2.13;;
75941;SDS011;64622;46.220;19.878;2023-07-28T14:19:47;7.78;;;1.85;;
75941;SDS011;64622;46.220;19.878;2023-07-28T14:22:14;6.30;;;1.90;;
75941;SDS011;64622;46.220;19.878;2023-07-28T14:24:41;6.72;;;1.77;;
75941;SDS011;64622;46.220;19.878;2023-07-28T14:27:07;7.37;;;1.50;;
75941;SDS011;64622;46.220;19.878;2023-07-28T14:29:34;7.80;;;1.57;;
75941;SDS011;64622;46.220;19.878;2023-07-28T14:32:00;7.60;;;1.52;;
75941;SDS011;64622;46.220;19.878;2023-07-28T14:34:27;54.55;;;4.45;;
75941;SDS011;64622;46.220;19.878;2023-07-28T14:36:53;8.15;;;1.58;;
75941;SDS011;64622;46.220;19.878;2023-07-28T14:39:20;6.57;;;1.17;;
75941;SDS011;64622;46.220;19.878;2023-07-28T14:41:47;5.60;;;1.13;;
75941;SDS011;64622;46.220;19.878;2023-07-28T14:44:13;8.13;;;1.25;;
75941;SDS011;64622;46.220;19.878;2023-07-28T14:46:40;6.53;;;1.20;;